Atlantis — PCDT — position and weather

sailwx.info

Track history (hours):
 
Tides and Currents Weather Stations Pressure Air Temp Water Temp Dewpoint Dewpoint Depression Visibility Wind Speed Wind Dir Waves Ship Positions

Atlantis (Netherlands)

Ship's website: http://www.tallship-company.com/artemis/gb_atlantis.htm

Last reported at 2016-Dec-05 10:31 UTC. Time now 2016-Dec-05 10:36 UTC.
Position N 53°10' E 005°25'.

Length 40 m; draft 4.5 m.

Type: Sailing vessel. MMSI: 246253000.

Date/timePositionNaut miles runAvg speedWind from/ knotsBaromVisibWave heightAir tempDewpointWater temp
2016-Dec-05 10:31N 53°10' E 005°25'0 0.0
2016-Dec-05 09:31N 53°10' E 005°25'0 0.0
2016-Dec-05 08:31N 53°10' E 005°25'0 0.0
2016-Dec-05 07:31N 53°10' E 005°25'0 0.0
2016-Dec-05 06:31N 53°10' E 005°25'0 0.0
2016-Dec-05 05:31N 53°10' E 005°25'0 0.0
2016-Dec-05 04:31N 53°10' E 005°25'0 0.0
2016-Dec-05 03:31N 53°10' E 005°25'0 0.0
2016-Dec-05 02:31N 53°10' E 005°25'0 0.0
2016-Dec-05 01:31N 53°10' E 005°25'0 0.0
2016-Dec-05 00:31N 53°10' E 005°25'0 0.0
2016-Dec-04 23:31N 53°10' E 005°25'0 0.0
2016-Dec-04 22:31N 53°10' E 005°25'0 0.0
2016-Dec-04 21:31N 53°10' E 005°25'0 0.0
2016-Dec-04 20:31N 53°10' E 005°25'0 0.0
2016-Dec-04 19:31N 53°10' E 005°25'0 0.0
2016-Dec-04 18:31N 53°10' E 005°25'0 0.0
2016-Dec-04 17:31N 53°10' E 005°25'0 0.0
2016-Dec-04 16:32N 53°10' E 005°25'0 0.0
2016-Dec-04 15:31N 53°10' E 005°25'0 0.0
2016-Dec-04 14:31N 53°10' E 005°25'0 0.0
2016-Dec-04 13:31N 53°10' E 005°25'0 0.0
2016-Dec-04 12:31N 53°10' E 005°25'0 0.0
2016-Dec-04 11:28N 53°10' E 005°25'0 0.0
2016-Dec-04 10:31N 53°10' E 005°25'0 0.0
2016-Dec-04 09:31N 53°10' E 005°25'0 0.0
2016-Dec-04 08:31N 53°10' E 005°25'0 0.0
2016-Dec-04 07:31N 53°10' E 005°25'0 0.0
2016-Dec-04 06:32N 53°10' E 005°25'0 0.0
2016-Dec-04 05:31N 53°10' E 005°25'0 0.0
2016-Dec-04 04:31N 53°10' E 005°25'0 0.0
2016-Dec-04 03:31N 53°10' E 005°25'0 0.0
2016-Dec-04 02:31N 53°10' E 005°25'0 0.0
2016-Dec-04 01:31N 53°10' E 005°25'0 0.0
2016-Dec-04 00:31N 53°10' E 005°25'0 0.0
2016-Dec-03 23:31N 53°10' E 005°25'0 0.0
2016-Dec-03 22:31N 53°10' E 005°25'0 0.0
2016-Dec-03 21:31N 53°10' E 005°25'0 0.0
2016-Dec-03 20:31N 53°10' E 005°25'0 0.0
2016-Dec-03 19:31N 53°10' E 005°25'0 0.0
2016-Dec-03 18:32N 53°10' E 005°25'0 0.0
2016-Dec-03 17:31N 53°10' E 005°25'0 0.0
2016-Dec-03 16:31N 53°10' E 005°25'0 0.0
2016-Dec-03 15:31N 53°10' E 005°25'0 0.0
2016-Dec-03 14:31N 53°10' E 005°25'0 0.0
2016-Dec-03 13:31N 53°10' E 005°25'0 0.0
2016-Dec-03 12:31N 53°10' E 005°25'0 0.0
2016-Dec-03 11:32N 53°10' E 005°25'0 0.0
2016-Dec-03 10:31N 53°10' E 005°25'0 0.0
2016-Dec-03 09:32N 53°10' E 005°25'1 0.9
2016-Dec-03 08:33N 53°11' E 005°23'9 8.6
2016-Dec-03 07:33N 53°15' E 005°10'30 6.0
2016-Dec-03 02:33N 52°60' E 004°27'6 6.3
2016-Dec-03 01:33N 52°55' E 004°20'6 6.2
2016-Dec-03 00:31N 52°50' E 004°14'100 6.2
2016-Dec-02 08:30N 51°36' E 002°25'6 6.0
2016-Dec-02 07:32N 51°31' E 002°19'7 6.7
2016-Dec-02 06:33N 51°26' E 002°14'7 7.1
2016-Dec-02 05:33N 51°19' E 002°08'8 7.5
2016-Dec-02 04:33N 51°13' E 002°02'8 8.4
2016-Dec-02 03:32N 51°08' E 001°51'9 9.2
2016-Dec-02 02:33N 51°02' E 001°41'1010.2
2016-Dec-02 01:32N 50°54' E 001°30'114 7.6
2016-Dec-01 10:32N 50°02' W 001°09'1110.9
2016-Dec-01 09:33N 49°59' W 001°25'1111.3
2016-Dec-01 08:34N 49°56' W 001°42'1611.4
2016-Dec-01 07:11N 49°52' W 002°05'129 7.7
2016-Nov-30 14:30N 48°47' W 004°56'8 8.2
2016-Nov-30 13:31N 48°42' W 005°06'7 7.5
2016-Nov-30 12:33N 48°38' W 005°14'  
2016-Nov-26 16:33N 39°13' W 009°29'8 8.4
2016-Nov-26 15:33N 39°05' W 009°31'8 8.4
2016-Nov-26 14:33N 38°56' W 009°32'8 8.4
2016-Nov-26 13:34N 38°48' W 009°32'7 7.1
2016-Nov-26 12:33N 38°41' W 009°28'7 7.1
2016-Nov-26 11:33N 38°40' W 009°19'5 5.3
2016-Nov-26 10:33N 38°41' W 009°13'3 2.5
2016-Nov-26 09:33N 38°42' W 009°10'0 0.0
2016-Nov-26 08:27N 38°42' W 009°10'0 0.0
2016-Nov-26 07:33N 38°42' W 009°10'0 0.0
2016-Nov-26 06:33N 38°42' W 009°10'0 0.0
2016-Nov-26 05:33N 38°42' W 009°10'0 0.0
2016-Nov-26 04:27N 38°42' W 009°10'0 0.0
2016-Nov-26 03:33N 38°42' W 009°10'0 0.0
2016-Nov-26 02:27N 38°42' W 009°10'0 0.0
2016-Nov-26 01:15N 38°42' W 009°10'0 0.0
2016-Nov-26 00:27N 38°42' W 009°10'0 0.0
2016-Nov-25 22:27N 38°42' W 009°10'0 0.0
2016-Nov-25 21:33N 38°42' W 009°10'0 0.0
2016-Nov-25 20:27N 38°42' W 009°10'0 0.0
2016-Nov-25 19:27N 38°42' W 009°10'0 0.0
2016-Nov-25 18:33N 38°42' W 009°10'0 0.0
2016-Nov-25 17:33N 38°42' W 009°10'0 0.0
2016-Nov-25 16:33N 38°42' W 009°10'0 0.0
2016-Nov-25 15:33N 38°42' W 009°10'0 0.0
2016-Nov-25 14:30N 38°42' W 009°10'0 0.0
2016-Nov-25 13:33N 38°42' W 009°10'0 0.0
2016-Nov-25 12:33N 38°42' W 009°10'0 0.0
2016-Nov-25 11:06N 38°42' W 009°10'0 0.0
2016-Nov-25 10:33N 38°42' W 009°10'  
Track history (hours):
 
Tides and Currents Weather Stations Pressure Air Temp Water Temp Dewpoint Dewpoint Depression Visibility Wind Speed Wind Dir Waves Ship Positions

Atlantis (Netherlands)

Ship's website: http://www.tallship-company.com/artemis/gb_atlantis.htm

Last reported at 2016-Dec-05 10:31 UTC. Time now 2016-Dec-05 10:36 UTC.
Position N 53°10' E 005°25'.

Length 40 m; draft 4.5 m.

Type: Sailing vessel. MMSI: 246253000.

Date/timePositionNaut miles runAvg speedWind from/ knotsBaromVisibWave heightAir tempDewpointWater temp
2016-Dec-05 10:31N 53°10' E 005°25'0 0.0
2016-Dec-05 09:31N 53°10' E 005°25'0 0.0
2016-Dec-05 08:31N 53°10' E 005°25'0 0.0
2016-Dec-05 07:31N 53°10' E 005°25'0 0.0
2016-Dec-05 06:31N 53°10' E 005°25'0 0.0
2016-Dec-05 05:31N 53°10' E 005°25'0 0.0
2016-Dec-05 04:31N 53°10' E 005°25'0 0.0
2016-Dec-05 03:31N 53°10' E 005°25'0 0.0
2016-Dec-05 02:31N 53°10' E 005°25'0 0.0
2016-Dec-05 01:31N 53°10' E 005°25'0 0.0
2016-Dec-05 00:31N 53°10' E 005°25'0 0.0
2016-Dec-04 23:31N 53°10' E 005°25'0 0.0
2016-Dec-04 22:31N 53°10' E 005°25'0 0.0
2016-Dec-04 21:31N 53°10' E 005°25'0 0.0
2016-Dec-04 20:31N 53°10' E 005°25'0 0.0
2016-Dec-04 19:31N 53°10' E 005°25'0 0.0
2016-Dec-04 18:31N 53°10' E 005°25'0 0.0
2016-Dec-04 17:31N 53°10' E 005°25'0 0.0
2016-Dec-04 16:32N 53°10' E 005°25'0 0.0
2016-Dec-04 15:31N 53°10' E 005°25'0 0.0
2016-Dec-04 14:31N 53°10' E 005°25'0 0.0
2016-Dec-04 13:31N 53°10' E 005°25'0 0.0
2016-Dec-04 12:31N 53°10' E 005°25'0 0.0
2016-Dec-04 11:28N 53°10' E 005°25'0 0.0
2016-Dec-04 10:31N 53°10' E 005°25'0 0.0
2016-Dec-04 09:31N 53°10' E 005°25'0 0.0
2016-Dec-04 08:31N 53°10' E 005°25'0 0.0
2016-Dec-04 07:31N 53°10' E 005°25'0 0.0
2016-Dec-04 06:32N 53°10' E 005°25'0 0.0
2016-Dec-04 05:31N 53°10' E 005°25'0 0.0
2016-Dec-04 04:31N 53°10' E 005°25'0 0.0
2016-Dec-04 03:31N 53°10' E 005°25'0 0.0
2016-Dec-04 02:31N 53°10' E 005°25'0 0.0
2016-Dec-04 01:31N 53°10' E 005°25'0 0.0
2016-Dec-04 00:31N 53°10' E 005°25'0 0.0
2016-Dec-03 23:31N 53°10' E 005°25'0 0.0
2016-Dec-03 22:31N 53°10' E 005°25'0 0.0
2016-Dec-03 21:31N 53°10' E 005°25'0 0.0
2016-Dec-03 20:31N 53°10' E 005°25'0 0.0
2016-Dec-03 19:31N 53°10' E 005°25'0 0.0
2016-Dec-03 18:32N 53°10' E 005°25'0 0.0
2016-Dec-03 17:31N 53°10' E 005°25'0 0.0
2016-Dec-03 16:31N 53°10' E 005°25'0 0.0
2016-Dec-03 15:31N 53°10' E 005°25'0 0.0
2016-Dec-03 14:31N 53°10' E 005°25'0 0.0
2016-Dec-03 13:31N 53°10' E 005°25'0 0.0
2016-Dec-03 12:31N 53°10' E 005°25'0 0.0
2016-Dec-03 11:32N 53°10' E 005°25'0 0.0
2016-Dec-03 10:31N 53°10' E 005°25'0 0.0
2016-Dec-03 09:32N 53°10' E 005°25'1 0.9
2016-Dec-03 08:33N 53°11' E 005°23'9 8.6
2016-Dec-03 07:33N 53°15' E 005°10'30 6.0
2016-Dec-03 02:33N 52°60' E 004°27'6 6.3
2016-Dec-03 01:33N 52°55' E 004°20'6 6.2
2016-Dec-03 00:31N 52°50' E 004°14'100 6.2
2016-Dec-02 08:30N 51°36' E 002°25'6 6.0
2016-Dec-02 07:32N 51°31' E 002°19'7 6.7
2016-Dec-02 06:33N 51°26' E 002°14'7 7.1
2016-Dec-02 05:33N 51°19' E 002°08'8 7.5
2016-Dec-02 04:33N 51°13' E 002°02'8 8.4
2016-Dec-02 03:32N 51°08' E 001°51'9 9.2
2016-Dec-02 02:33N 51°02' E 001°41'1010.2
2016-Dec-02 01:32N 50°54' E 001°30'114 7.6
2016-Dec-01 10:32N 50°02' W 001°09'1110.9
2016-Dec-01 09:33N 49°59' W 001°25'1111.3
2016-Dec-01 08:34N 49°56' W 001°42'1611.4
2016-Dec-01 07:11N 49°52' W 002°05'129 7.7
2016-Nov-30 14:30N 48°47' W 004°56'8 8.2
2016-Nov-30 13:31N 48°42' W 005°06'7 7.5
2016-Nov-30 12:33N 48°38' W 005°14'  
2016-Nov-26 16:33N 39°13' W 009°29'8 8.4
2016-Nov-26 15:33N 39°05' W 009°31'8 8.4
2016-Nov-26 14:33N 38°56' W 009°32'8 8.4
2016-Nov-26 13:34N 38°48' W 009°32'7 7.1
2016-Nov-26 12:33N 38°41' W 009°28'7 7.1
2016-Nov-26 11:33N 38°40' W 009°19'5 5.3
2016-Nov-26 10:33N 38°41' W 009°13'3 2.5
2016-Nov-26 09:33N 38°42' W 009°10'0 0.0
2016-Nov-26 08:27N 38°42' W 009°10'0 0.0
2016-Nov-26 07:33N 38°42' W 009°10'0 0.0
2016-Nov-26 06:33N 38°42' W 009°10'0 0.0
2016-Nov-26 05:33N 38°42' W 009°10'0 0.0
2016-Nov-26 04:27N 38°42' W 009°10'0 0.0
2016-Nov-26 03:33N 38°42' W 009°10'0 0.0
2016-Nov-26 02:27N 38°42' W 009°10'0 0.0
2016-Nov-26 01:15N 38°42' W 009°10'0 0.0
2016-Nov-26 00:27N 38°42' W 009°10'0 0.0
2016-Nov-25 22:27N 38°42' W 009°10'0 0.0
2016-Nov-25 21:33N 38°42' W 009°10'0 0.0
2016-Nov-25 20:27N 38°42' W 009°10'0 0.0
2016-Nov-25 19:27N 38°42' W 009°10'0 0.0
2016-Nov-25 18:33N 38°42' W 009°10'0 0.0
2016-Nov-25 17:33N 38°42' W 009°10'0 0.0
2016-Nov-25 16:33N 38°42' W 009°10'0 0.0
2016-Nov-25 15:33N 38°42' W 009°10'0 0.0
2016-Nov-25 14:30N 38°42' W 009°10'0 0.0
2016-Nov-25 13:33N 38°42' W 009°10'0 0.0
2016-Nov-25 12:33N 38°42' W 009°10'0 0.0
2016-Nov-25 11:06N 38°42' W 009°10'0 0.0
2016-Nov-25 10:33N 38°42' W 009°10'  

Dump ship's entire track history